Coral Ruby — 3ERR6 — position and weather

sailwx.info

Track history (hours):
 
Tides and Currents Weather Stations Pressure Air Temp Water Temp Dewpoint Dewpoint Depression Visibility Wind Speed Wind Dir Waves Ship Positions

Coral Ruby

Last reported at 2014-Aug-05 15:05 UTC. Time now 2014-Aug-23 19:20 UTC.
Position N 33°53' E 134°55'.
Warning: this ship's position is 18 days out of date.

Length 225 m; draft 8.6 m.

Type: Ship. MMSI: 370150000.

Date/timePositionNaut miles runAvg speedWind from/ knotsBaromVisibWave heightAir tempDewpointWater temp
2014-Aug-05 15:05N 33°53' E 134°55'611.9
2014-Aug-05 14:33N 33°60' E 134°55'1212.2
2014-Aug-05 13:34N 34°12' E 134°56'1511.5
2014-Aug-05 12:13N 34°26' E 135°03'812.5
2014-Aug-05 11:34N 34°33' E 135°07'1010.0
2014-Aug-05 10:33N 34°36' E 134°56'9 9.3
2014-Aug-05 09:33N 34°37' E 134°44'7 6.9
2014-Aug-05 08:30N 34°43' E 134°50'0 0.0
2014-Aug-05 07:30N 34°43' E 134°50'0 0.0
2014-Aug-05 05:24N 34°43' E 134°50'0 0.0
2014-Aug-05 04:30N 34°43' E 134°50'0 0.0
2014-Aug-05 03:30N 34°43' E 134°50'0 0.0
2014-Aug-05 02:30N 34°43' E 134°50'0 0.0
2014-Aug-05 01:06N 34°43' E 134°50'0 0.0
2014-Aug-05 00:24N 34°43' E 134°50'0 0.0
2014-Aug-04 23:24N 34°43' E 134°50'0 0.0
2014-Aug-04 22:30N 34°43' E 134°50'0 0.0
2014-Aug-04 21:30N 34°43' E 134°50'0 0.0
2014-Aug-04 20:24N 34°43' E 134°50'0 0.0
2014-Aug-04 19:30N 34°43' E 134°50'0 0.0
2014-Aug-04 18:18N 34°43' E 134°50'0 0.1
2014-Aug-04 17:24N 34°43' E 134°50'0 0.0
2014-Aug-04 16:30N 34°43' E 134°50'0 0.0
2014-Aug-04 15:30N 34°43' E 134°50'0 0.0
2014-Aug-04 14:24N 34°43' E 134°50'0 0.0
2014-Aug-04 13:30N 34°43' E 134°50'0 0.0
2014-Aug-04 12:30N 34°43' E 134°50'0 0.0
2014-Aug-04 11:30N 34°43' E 134°50'0 0.0
2014-Aug-04 10:30N 34°43' E 134°50'0 0.0
2014-Aug-04 09:30N 34°43' E 134°50'0 0.0
2014-Aug-04 08:18N 34°43' E 134°50'0 0.0
2014-Aug-04 07:30N 34°43' E 134°50'0 0.0
2014-Aug-04 06:30N 34°43' E 134°50'0 0.0
2014-Aug-04 05:30N 34°43' E 134°50'0 0.0
2014-Aug-04 03:30N 34°43' E 134°50'0 0.0
2014-Aug-04 02:30N 34°43' E 134°50'0 0.0
2014-Aug-04 01:30N 34°43' E 134°50'0 0.0
2014-Aug-04 00:18N 34°43' E 134°50'0 0.1
2014-Aug-03 23:24N 34°43' E 134°50'0 0.0
2014-Aug-03 22:30N 34°43' E 134°50'0 0.0
2014-Aug-03 21:24N 34°43' E 134°50'0 0.1
2014-Aug-03 20:30N 34°43' E 134°50'0 0.0
2014-Aug-03 19:30N 34°43' E 134°50'0 0.0
2014-Aug-03 18:24N 34°43' E 134°50'0 0.1
2014-Aug-03 17:30N 34°43' E 134°50'0 0.0
2014-Aug-03 11:30N 34°43' E 134°50'0 0.0
2014-Aug-03 10:30N 34°43' E 134°50'0 0.0
2014-Aug-03 09:18N 34°43' E 134°50'0 0.0
2014-Aug-03 08:30N 34°43' E 134°50'0 0.0
2014-Aug-03 07:24N 34°43' E 134°50'0 0.0
2014-Aug-03 06:12N 34°43' E 134°50'0 0.0
2014-Aug-03 05:18N 34°43' E 134°50'0 0.0
2014-Aug-03 04:30N 34°43' E 134°50'0 0.0
2014-Aug-03 03:30N 34°43' E 134°50'0 0.0
2014-Aug-03 02:30N 34°43' E 134°50'0 0.0
2014-Aug-03 01:30N 34°43' E 134°50'0 0.0
2014-Aug-03 00:30N 34°43' E 134°50'0 0.0
2014-Aug-02 23:30N 34°43' E 134°50'0 0.0
2014-Aug-02 22:24N 34°43' E 134°50'0 0.0
2014-Aug-02 21:24N 34°43' E 134°50'0 0.0
2014-Aug-02 20:30N 34°43' E 134°50'0 0.0
2014-Aug-02 19:30N 34°43' E 134°50'0 0.0
2014-Aug-02 18:30N 34°43' E 134°50'0 0.0
2014-Aug-02 17:24N 34°43' E 134°50'0 0.0
2014-Aug-02 16:30N 34°43' E 134°50'0 0.0
2014-Aug-02 15:24N 34°43' E 134°50'0 0.0
2014-Aug-02 14:12N 34°43' E 134°50'0 0.0
2014-Aug-02 13:18N 34°43' E 134°50'0 0.0
2014-Aug-02 12:24N 34°43' E 134°50'2 2.4
2014-Aug-02 11:33N 34°41' E 134°49'3 2.3
2014-Aug-02 10:27N 34°41' E 134°46'0 0.0
2014-Aug-02 07:03N 34°41' E 134°46'0 0.1
2014-Aug-02 06:33N 34°41' E 134°46'0 0.1
2014-Aug-02 05:33N 34°41' E 134°46'0 0.1
2014-Aug-02 04:27N 34°41' E 134°46'0 0.1
2014-Aug-02 03:33N 34°41' E 134°46'0 0.0
2014-Aug-02 02:33N 34°41' E 134°46'0 0.1
2014-Aug-02 01:33N 34°41' E 134°46'0 0.1
2014-Aug-02 00:33N 34°41' E 134°46'0 0.1
2014-Aug-01 23:27N 34°41' E 134°46'0 0.0
2014-Aug-01 22:09N 34°41' E 134°46'0 0.0
2014-Aug-01 21:15N 34°41' E 134°46'0 0.0
2014-Aug-01 19:27N 34°41' E 134°46'0 0.0
2014-Aug-01 18:33N 34°41' E 134°46'0 0.1
2014-Aug-01 17:33N 34°41' E 134°46'0 0.1
2014-Aug-01 16:27N 34°41' E 134°46'0 0.1
2014-Aug-01 15:33N 34°41' E 134°46'0 0.0
2014-Aug-01 14:33N 34°41' E 134°46'0 0.0
2014-Aug-01 13:33N 34°41' E 134°46'0 0.1
2014-Aug-01 12:33N 34°41' E 134°46'0 0.2
2014-Aug-01 11:33N 34°41' E 134°46'0 0.0
2014-Aug-01 06:27N 34°41' E 134°46'0 0.2
2014-Aug-01 05:19N 34°41' E 134°46'4 4.6
2014-Aug-01 04:33N 34°37' E 134°44'11 8.6
2014-Aug-01 03:19N 34°37' E 134°57'911.7
2014-Aug-01 02:33N 34°35' E 135°07'4 4.1
2014-Aug-01 01:33N 34°31' E 135°07'1413.6
2014-Aug-01 00:33N 34°18' E 134°60'1111.0
2014-Jul-31 23:33N 34°08' E 134°60'7 6.5
2014-Jul-31 22:33N 34°01' E 134°59'  
Track history (hours):
 
Tides and Currents Weather Stations Pressure Air Temp Water Temp Dewpoint Dewpoint Depression Visibility Wind Speed Wind Dir Waves Ship Positions

Coral Ruby

Last reported at 2014-Aug-05 15:05 UTC. Time now 2014-Aug-23 19:20 UTC.
Position N 33°53' E 134°55'.
Warning: this ship's position is 18 days out of date.

Length 225 m; draft 8.6 m.

Type: Ship. MMSI: 370150000.

Date/timePositionNaut miles runAvg speedWind from/ knotsBaromVisibWave heightAir tempDewpointWater temp
2014-Aug-05 15:05N 33°53' E 134°55'611.9
2014-Aug-05 14:33N 33°60' E 134°55'1212.2
2014-Aug-05 13:34N 34°12' E 134°56'1511.5
2014-Aug-05 12:13N 34°26' E 135°03'812.5
2014-Aug-05 11:34N 34°33' E 135°07'1010.0
2014-Aug-05 10:33N 34°36' E 134°56'9 9.3
2014-Aug-05 09:33N 34°37' E 134°44'7 6.9
2014-Aug-05 08:30N 34°43' E 134°50'0 0.0
2014-Aug-05 07:30N 34°43' E 134°50'0 0.0
2014-Aug-05 05:24N 34°43' E 134°50'0 0.0
2014-Aug-05 04:30N 34°43' E 134°50'0 0.0
2014-Aug-05 03:30N 34°43' E 134°50'0 0.0
2014-Aug-05 02:30N 34°43' E 134°50'0 0.0
2014-Aug-05 01:06N 34°43' E 134°50'0 0.0
2014-Aug-05 00:24N 34°43' E 134°50'0 0.0
2014-Aug-04 23:24N 34°43' E 134°50'0 0.0
2014-Aug-04 22:30N 34°43' E 134°50'0 0.0
2014-Aug-04 21:30N 34°43' E 134°50'0 0.0
2014-Aug-04 20:24N 34°43' E 134°50'0 0.0
2014-Aug-04 19:30N 34°43' E 134°50'0 0.0
2014-Aug-04 18:18N 34°43' E 134°50'0 0.1
2014-Aug-04 17:24N 34°43' E 134°50'0 0.0
2014-Aug-04 16:30N 34°43' E 134°50'0 0.0
2014-Aug-04 15:30N 34°43' E 134°50'0 0.0
2014-Aug-04 14:24N 34°43' E 134°50'0 0.0
2014-Aug-04 13:30N 34°43' E 134°50'0 0.0
2014-Aug-04 12:30N 34°43' E 134°50'0 0.0
2014-Aug-04 11:30N 34°43' E 134°50'0 0.0
2014-Aug-04 10:30N 34°43' E 134°50'0 0.0
2014-Aug-04 09:30N 34°43' E 134°50'0 0.0
2014-Aug-04 08:18N 34°43' E 134°50'0 0.0
2014-Aug-04 07:30N 34°43' E 134°50'0 0.0
2014-Aug-04 06:30N 34°43' E 134°50'0 0.0
2014-Aug-04 05:30N 34°43' E 134°50'0 0.0
2014-Aug-04 03:30N 34°43' E 134°50'0 0.0
2014-Aug-04 02:30N 34°43' E 134°50'0 0.0
2014-Aug-04 01:30N 34°43' E 134°50'0 0.0
2014-Aug-04 00:18N 34°43' E 134°50'0 0.1
2014-Aug-03 23:24N 34°43' E 134°50'0 0.0
2014-Aug-03 22:30N 34°43' E 134°50'0 0.0
2014-Aug-03 21:24N 34°43' E 134°50'0 0.1
2014-Aug-03 20:30N 34°43' E 134°50'0 0.0
2014-Aug-03 19:30N 34°43' E 134°50'0 0.0
2014-Aug-03 18:24N 34°43' E 134°50'0 0.1
2014-Aug-03 17:30N 34°43' E 134°50'0 0.0
2014-Aug-03 11:30N 34°43' E 134°50'0 0.0
2014-Aug-03 10:30N 34°43' E 134°50'0 0.0
2014-Aug-03 09:18N 34°43' E 134°50'0 0.0
2014-Aug-03 08:30N 34°43' E 134°50'0 0.0
2014-Aug-03 07:24N 34°43' E 134°50'0 0.0
2014-Aug-03 06:12N 34°43' E 134°50'0 0.0
2014-Aug-03 05:18N 34°43' E 134°50'0 0.0
2014-Aug-03 04:30N 34°43' E 134°50'0 0.0
2014-Aug-03 03:30N 34°43' E 134°50'0 0.0
2014-Aug-03 02:30N 34°43' E 134°50'0 0.0
2014-Aug-03 01:30N 34°43' E 134°50'0 0.0
2014-Aug-03 00:30N 34°43' E 134°50'0 0.0
2014-Aug-02 23:30N 34°43' E 134°50'0 0.0
2014-Aug-02 22:24N 34°43' E 134°50'0 0.0
2014-Aug-02 21:24N 34°43' E 134°50'0 0.0
2014-Aug-02 20:30N 34°43' E 134°50'0 0.0
2014-Aug-02 19:30N 34°43' E 134°50'0 0.0
2014-Aug-02 18:30N 34°43' E 134°50'0 0.0
2014-Aug-02 17:24N 34°43' E 134°50'0 0.0
2014-Aug-02 16:30N 34°43' E 134°50'0 0.0
2014-Aug-02 15:24N 34°43' E 134°50'0 0.0
2014-Aug-02 14:12N 34°43' E 134°50'0 0.0
2014-Aug-02 13:18N 34°43' E 134°50'0 0.0
2014-Aug-02 12:24N 34°43' E 134°50'2 2.4
2014-Aug-02 11:33N 34°41' E 134°49'3 2.3
2014-Aug-02 10:27N 34°41' E 134°46'0 0.0
2014-Aug-02 07:03N 34°41' E 134°46'0 0.1
2014-Aug-02 06:33N 34°41' E 134°46'0 0.1
2014-Aug-02 05:33N 34°41' E 134°46'0 0.1
2014-Aug-02 04:27N 34°41' E 134°46'0 0.1
2014-Aug-02 03:33N 34°41' E 134°46'0 0.0
2014-Aug-02 02:33N 34°41' E 134°46'0 0.1
2014-Aug-02 01:33N 34°41' E 134°46'0 0.1
2014-Aug-02 00:33N 34°41' E 134°46'0 0.1
2014-Aug-01 23:27N 34°41' E 134°46'0 0.0
2014-Aug-01 22:09N 34°41' E 134°46'0 0.0
2014-Aug-01 21:15N 34°41' E 134°46'0 0.0
2014-Aug-01 19:27N 34°41' E 134°46'0 0.0
2014-Aug-01 18:33N 34°41' E 134°46'0 0.1
2014-Aug-01 17:33N 34°41' E 134°46'0 0.1
2014-Aug-01 16:27N 34°41' E 134°46'0 0.1
2014-Aug-01 15:33N 34°41' E 134°46'0 0.0
2014-Aug-01 14:33N 34°41' E 134°46'0 0.0
2014-Aug-01 13:33N 34°41' E 134°46'0 0.1
2014-Aug-01 12:33N 34°41' E 134°46'0 0.2
2014-Aug-01 11:33N 34°41' E 134°46'0 0.0
2014-Aug-01 06:27N 34°41' E 134°46'0 0.2
2014-Aug-01 05:19N 34°41' E 134°46'4 4.6
2014-Aug-01 04:33N 34°37' E 134°44'11 8.6
2014-Aug-01 03:19N 34°37' E 134°57'911.7
2014-Aug-01 02:33N 34°35' E 135°07'4 4.1
2014-Aug-01 01:33N 34°31' E 135°07'1413.6
2014-Aug-01 00:33N 34°18' E 134°60'1111.0
2014-Jul-31 23:33N 34°08' E 134°60'7 6.5
2014-Jul-31 22:33N 34°01' E 134°59'  

Dump ship's entire track history